createdAt,value
2022-11-05T00:02:20.696Z,56.87
2022-11-05T00:04:41.202Z,57.21
2022-11-05T00:07:01.922Z,56.68
2022-11-05T00:09:22.343Z,57.18
2022-11-05T00:11:44.591Z,56.95
2022-11-05T00:14:04.890Z,56.90
2022-11-05T00:16:25.255Z,56.56
2022-11-05T00:18:27.583Z,56.67
2022-11-05T00:20:29.445Z,56.92
2022-11-05T00:22:50.812Z,56.41
2022-11-05T00:25:11.742Z,57.28
2022-11-05T00:27:13.611Z,57.31
2022-11-05T00:29:15.624Z,56.90
2022-11-05T00:31:17.808Z,56.71
2022-11-05T00:33:20.137Z,56.20
2022-11-05T00:35:22.686Z,56.95
2022-11-05T00:37:24.777Z,56.04
2022-11-05T00:39:26.700Z,57.01
2022-11-05T00:41:28.582Z,56.80
2022-11-05T00:43:49.470Z,56.91
2022-11-05T00:45:51.359Z,56.60
2022-11-05T00:48:11.607Z,56.80
2022-11-05T00:50:14.168Z,56.62
2022-11-05T00:52:34.938Z,57.15
2022-11-05T00:54:36.973Z,56.66
2022-11-05T00:56:39.174Z,57.48
2022-11-05T00:58:41.033Z,57.94
2022-11-05T01:00:50.538Z,57.68
2022-11-05T01:02:53.023Z,57.88
2022-11-05T01:04:54.955Z,58.18
2022-11-05T01:06:56.791Z,57.14
2022-11-05T01:08:58.956Z,56.51
2022-11-05T01:11:07.435Z,56.86
2022-11-05T01:13:13.016Z,57.95
2022-11-05T01:15:16.812Z,57.89
2022-11-05T01:17:18.625Z,58.10
2022-11-05T01:19:20.577Z,57.77
2022-11-05T01:21:22.853Z,59.04
2022-11-05T01:23:24.881Z,60.00
2022-11-05T01:25:27.144Z,59.49
2022-11-05T01:27:29.323Z,59.22
2022-11-05T01:29:31.187Z,58.51
2022-11-05T01:31:33.039Z,58.29
2022-11-05T01:33:35.304Z,58.72
2022-11-05T01:35:39.184Z,58.41
2022-11-05T01:37:41.100Z,59.29
2022-11-05T01:39:43.318Z,59.98
2022-11-05T01:41:45.171Z,58.57
2022-11-05T01:44:01.655Z,58.72
2022-11-05T01:46:03.866Z,58.68
2022-11-05T01:48:15.377Z,58.62
2022-11-05T01:50:23.280Z,59.15
2022-11-05T01:52:27.941Z,59.11
2022-11-05T01:54:33.419Z,58.58
2022-11-05T01:56:43.616Z,58.29
2022-11-05T01:59:02.733Z,58.48
2022-11-05T02:01:04.640Z,59.77
2022-11-05T02:03:07.219Z,59.41
2022-11-05T02:05:09.753Z,59.13
2022-11-05T02:07:12.917Z,58.93
2022-11-05T02:09:26.165Z,59.17
2022-11-05T02:11:29.032Z,59.16
2022-11-05T02:13:30.941Z,60.26
2022-11-05T02:16:02.178Z,59.75
2022-11-05T02:18:18.958Z,59.62
2022-11-05T02:20:32.684Z,59.78
2022-11-05T02:23:24.491Z,60.19
2022-11-05T02:26:11.978Z,60.04
2022-11-05T02:28:19.916Z,60.13
2022-11-05T02:30:43.122Z,60.77
2022-11-05T02:32:52.543Z,62.00
2022-11-05T02:35:19.291Z,62.26
2022-11-05T02:37:23.882Z,62.60
2022-11-05T02:39:28.857Z,63.03
2022-11-05T02:41:39.991Z,62.28
2022-11-05T02:44:17.448Z,63.37
2022-11-05T02:46:31.626Z,62.83
2022-11-05T02:48:45.326Z,62.32
2022-11-05T02:50:59.335Z,62.22
2022-11-05T02:53:12.146Z,62.64
2022-11-05T02:55:29.704Z,62.97
2022-11-05T02:57:36.358Z,62.82
2022-11-05T02:59:38.610Z,62.77
2022-11-05T03:01:43.961Z,62.84
2022-11-05T03:03:48.944Z,62.90
2022-11-05T03:06:28.217Z,62.41
2022-11-05T03:08:51.526Z,62.86
2022-11-05T03:11:01.942Z,62.94
2022-11-05T03:13:20.728Z,62.30
2022-11-05T03:15:40.824Z,62.49
2022-11-05T03:18:00.008Z,62.77
2022-11-05T03:20:12.790Z,63.86
2022-11-05T03:22:21.809Z,64.32
2022-11-05T03:24:29.429Z,64.15
2022-11-05T03:26:36.119Z,63.40
2022-11-05T03:28:43.133Z,64.53
2022-11-05T03:30:46.549Z,63.61
2022-11-05T03:32:57.339Z,64.16
2022-11-05T03:35:04.110Z,63.79
2022-11-05T03:37:07.867Z,62.58
2022-11-05T03:39:17.314Z,63.66
2022-11-05T03:41:22.000Z,64.10
2022-11-05T03:43:29.675Z,63.72
2022-11-05T03:45:37.457Z,64.46
2022-11-05T03:47:43.171Z,65.15
2022-11-05T03:50:02.611Z,65.30
2022-11-05T03:52:09.191Z,65.48
2022-11-05T03:54:11.186Z,65.51
2022-11-05T03:56:21.998Z,65.76
2022-11-05T03:58:24.805Z,66.47
2022-11-05T04:00:26.815Z,66.33
2022-11-05T04:02:29.264Z,66.68
2022-11-05T04:04:31.184Z,66.55
2022-11-05T04:06:51.299Z,65.82
2022-11-05T04:09:12.186Z,65.44
2022-11-05T04:11:32.241Z,64.82
2022-11-05T04:13:34.193Z,64.55
2022-11-05T04:15:56.474Z,65.54
2022-11-05T04:17:59.109Z,64.70
2022-11-05T04:20:19.734Z,66.50
2022-11-05T04:22:42.367Z,64.85
2022-11-05T04:24:44.237Z,64.30
2022-11-05T04:26:46.105Z,64.90
2022-11-05T04:29:07.990Z,66.51
2022-11-05T04:31:09.921Z,66.88
2022-11-05T04:33:14.793Z,67.22
2022-11-05T04:35:17.237Z,66.13
2022-11-05T04:37:19.170Z,67.18
2022-11-05T04:39:21.550Z,67.57
2022-11-05T04:41:23.930Z,68.71
2022-11-05T04:43:25.750Z,67.60
2022-11-05T04:45:30.035Z,68.33
2022-11-05T04:47:32.186Z,68.18
2022-11-05T04:49:34.013Z,68.11
2022-11-05T04:51:35.887Z,67.39
2022-11-05T04:53:38.154Z,67.65
2022-11-05T04:55:40.009Z,67.29
2022-11-05T04:57:41.915Z,66.94
2022-11-05T04:59:44.128Z,67.37
2022-11-05T05:01:46.008Z,67.48
2022-11-05T05:03:49.643Z,67.65
2022-11-05T05:05:53.795Z,67.76
2022-11-05T05:08:00.830Z,66.47
2022-11-05T05:10:04.605Z,66.96
2022-11-05T05:12:08.069Z,67.41
2022-11-05T05:14:10.031Z,67.38
2022-11-05T05:16:20.266Z,67.40
2022-11-05T05:18:22.639Z,68.58
2022-11-05T05:20:43.273Z,70.09
2022-11-05T05:22:52.050Z,71.65
2022-11-05T05:24:55.685Z,74.32
2022-11-05T05:26:57.641Z,74.61
2022-11-05T05:28:59.528Z,77.02
2022-11-05T05:31:02.165Z,76.94
2022-11-05T05:33:04.662Z,77.62
2022-11-05T05:35:07.081Z,78.22
2022-11-05T05:37:09.280Z,79.26
2022-11-05T05:39:11.352Z,79.02
2022-11-05T05:41:13.374Z,79.62
2022-11-05T05:43:15.768Z,80.28
2022-11-05T05:45:17.642Z,79.95
2022-11-05T05:47:19.571Z,79.83
2022-11-05T05:49:21.940Z,79.96
2022-11-05T05:51:23.979Z,80.58
2022-11-05T05:53:25.806Z,81.46
2022-11-05T05:55:28.002Z,80.77
2022-11-05T05:57:29.818Z,80.44
2022-11-05T05:59:31.684Z,81.40
2022-11-05T06:01:33.928Z,80.72
2022-11-05T06:03:35.899Z,81.24
2022-11-05T06:05:37.693Z,81.90
2022-11-05T06:07:40.101Z,81.60
2022-11-05T06:09:42.096Z,82.50
2022-11-05T06:11:44.184Z,81.09
2022-11-05T06:13:46.431Z,81.23
2022-11-05T06:15:48.313Z,82.51
2022-11-05T06:17:50.171Z,81.26
2022-11-05T06:19:52.955Z,81.33
2022-11-05T06:21:54.884Z,81.86
2022-11-05T06:23:56.749Z,82.11
2022-11-05T06:26:03.699Z,81.76
2022-11-05T06:28:05.540Z,81.49
2022-11-05T06:30:08.106Z,80.89
2022-11-05T06:32:10.320Z,81.45
2022-11-05T06:34:14.977Z,80.08
2022-11-05T06:36:18.743Z,80.98
2022-11-05T06:38:21.293Z,80.49
2022-11-05T06:40:23.171Z,80.16
2022-11-05T06:42:25.520Z,79.58
2022-11-05T06:44:27.867Z,79.42
2022-11-05T06:46:29.866Z,79.33
2022-11-05T06:48:31.918Z,78.06
2022-11-05T06:50:34.115Z,77.26
2022-11-05T06:52:40.915Z,77.13
2022-11-05T06:54:44.164Z,77.71
2022-11-05T06:56:46.599Z,77.27
2022-11-05T06:58:48.438Z,76.81
2022-11-05T07:00:50.339Z,76.63
2022-11-05T07:02:52.816Z,75.79
2022-11-05T07:04:54.656Z,75.76
2022-11-05T07:06:56.581Z,75.05
2022-11-05T07:08:59.404Z,75.88
2022-11-05T07:11:01.407Z,74.59
2022-11-05T07:13:07.727Z,73.35
2022-11-05T07:15:12.393Z,72.91
2022-11-05T07:17:14.212Z,72.98
2022-11-05T07:19:16.069Z,72.71
2022-11-05T07:21:19.775Z,72.75
2022-11-05T07:23:21.611Z,72.68
2022-11-05T07:25:23.411Z,71.23
2022-11-05T07:27:25.681Z,72.01
2022-11-05T07:29:27.515Z,72.87
2022-11-05T07:31:29.355Z,72.42
2022-11-05T07:33:36.307Z,71.88
2022-11-05T07:35:38.839Z,71.17
2022-11-05T07:37:45.700Z,70.45
2022-11-05T07:39:48.235Z,71.14
2022-11-05T07:41:52.455Z,70.87
2022-11-05T07:43:54.286Z,70.26
2022-11-05T07:45:56.718Z,70.22
2022-11-05T07:48:00.781Z,70.57
2022-11-05T07:50:02.651Z,70.84
2022-11-05T07:52:05.173Z,70.78
2022-11-05T07:54:07.022Z,70.94
2022-11-05T07:56:10.463Z,70.31
2022-11-05T07:58:13.606Z,69.87
2022-11-05T08:00:18.298Z,69.78
2022-11-05T08:02:20.440Z,69.69
2022-11-05T08:04:23.102Z,69.74
2022-11-05T08:06:25.155Z,70.02
2022-11-05T08:08:27.052Z,69.47
2022-11-05T08:10:29.562Z,69.63
2022-11-05T08:12:32.440Z,69.50
2022-11-05T08:14:34.352Z,68.26
2022-11-05T08:16:36.573Z,69.21
2022-11-05T08:18:38.454Z,67.73
2022-11-05T08:20:41.335Z,68.10
2022-11-05T08:22:44.593Z,68.55
2022-11-05T08:24:46.519Z,68.02
2022-11-05T08:26:48.407Z,68.13
2022-11-05T08:28:50.604Z,67.49
2022-11-05T08:30:54.998Z,67.87
2022-11-05T08:32:59.143Z,68.25
2022-11-05T08:35:01.380Z,67.73
2022-11-05T08:37:03.824Z,66.92
2022-11-05T08:39:05.867Z,67.66
2022-11-05T08:41:08.101Z,66.54
2022-11-05T08:43:12.929Z,67.80
2022-11-05T08:45:15.180Z,67.97
2022-11-05T08:47:17.486Z,68.42
2022-11-05T08:49:19.329Z,67.36
2022-11-05T08:51:21.246Z,66.79
2022-11-05T08:53:23.452Z,66.68
2022-11-05T08:55:25.942Z,67.02
2022-11-05T08:57:27.802Z,66.12
2022-11-05T08:59:31.475Z,64.99
2022-11-05T09:01:34.448Z,65.82
2022-11-05T09:03:36.565Z,65.78
2022-11-05T09:05:40.747Z,64.96
2022-11-05T09:07:42.657Z,64.40
2022-11-05T09:09:44.519Z,65.61
2022-11-05T09:12:10.437Z,64.90
2022-11-05T09:14:08.906Z,64.89
2022-11-05T09:16:25.664Z,65.55
2022-11-05T09:18:28.466Z,64.23
2022-11-05T09:20:30.407Z,64.17
2022-11-05T09:22:32.310Z,65.38
2022-11-05T09:24:34.516Z,64.81
2022-11-05T09:26:36.382Z,65.21
2022-11-05T09:28:38.325Z,66.35
2022-11-05T09:30:51.609Z,65.04
2022-11-05T09:32:54.898Z,64.88
2022-11-05T09:34:56.876Z,64.86
2022-11-05T09:36:59.270Z,64.83
2022-11-05T09:39:01.161Z,65.09
2022-11-05T09:41:05.886Z,64.13
2022-11-05T09:43:12.975Z,63.60
2022-11-05T09:45:24.899Z,64.28
2022-11-05T09:47:35.103Z,64.04
2022-11-05T09:49:42.088Z,63.89
2022-11-05T09:51:44.198Z,64.54
2022-11-05T09:53:46.885Z,63.90
2022-11-05T09:55:51.662Z,64.90
2022-11-05T09:57:59.596Z,64.19
2022-11-05T10:00:06.420Z,63.59
2022-11-05T10:02:27.740Z,63.11
2022-11-05T10:04:33.288Z,62.57
2022-11-05T10:06:38.702Z,62.51
2022-11-05T10:08:45.055Z,61.53
2022-11-05T10:10:51.505Z,60.90
2022-11-05T10:12:58.774Z,62.16
2022-11-05T10:15:06.871Z,62.15
2022-11-05T10:17:15.920Z,61.42
2022-11-05T10:19:24.720Z,61.46
2022-11-05T10:21:51.522Z,62.32
2022-11-05T10:23:49.126Z,62.71
2022-11-05T10:25:58.371Z,63.18
2022-11-05T10:28:01.483Z,62.82
2022-11-05T10:30:04.075Z,62.67
2022-11-05T10:32:07.396Z,62.66
2022-11-05T10:34:13.762Z,62.65
2022-11-05T10:36:39.698Z,63.04
2022-11-05T10:38:41.591Z,62.45
2022-11-05T10:41:21.604Z,62.94
2022-11-05T10:43:30.731Z,63.42
2022-11-05T10:45:49.394Z,63.74
2022-11-05T10:48:23.958Z,63.68
2022-11-05T10:50:28.494Z,63.41
2022-11-05T10:52:51.952Z,62.98
2022-11-05T10:54:58.724Z,63.87
2022-11-05T10:57:00.576Z,64.06
2022-11-05T10:59:07.972Z,63.74
2022-11-05T11:01:13.380Z,64.72
2022-11-05T11:03:40.067Z,63.89
2022-11-05T11:05:41.968Z,63.51
2022-11-05T11:07:52.645Z,63.96
2022-11-05T11:09:54.646Z,64.49
2022-11-05T11:12:01.891Z,65.18
2022-11-05T11:14:20.977Z,65.41
2022-11-05T11:16:26.378Z,66.06
2022-11-05T11:18:35.882Z,64.75
2022-11-05T11:20:44.841Z,65.03
2022-11-05T11:23:02.751Z,65.68
2022-11-05T11:25:24.421Z,66.85
2022-11-05T11:27:33.249Z,66.90
2022-11-05T11:29:41.992Z,66.21
2022-11-05T11:31:47.213Z,65.68
2022-11-05T11:33:55.877Z,66.27
2022-11-05T11:35:58.379Z,66.96
2022-11-05T11:38:02.184Z,67.15
2022-11-05T11:40:13.397Z,67.81
2022-11-05T11:42:39.490Z,67.76
2022-11-05T11:44:45.635Z,68.50
2022-11-05T11:46:51.012Z,68.48
2022-11-05T11:48:53.314Z,69.29
2022-11-05T11:50:57.171Z,68.69
2022-11-05T11:53:21.170Z,69.23
2022-11-05T11:55:23.291Z,69.69
2022-11-05T11:57:28.334Z,70.58
2022-11-05T12:00:01.849Z,71.52
2022-11-05T12:02:05.614Z,71.97
2022-11-05T12:04:32.606Z,72.98
2022-11-05T12:06:59.712Z,72.01
2022-11-05T12:09:12.055Z,72.27
2022-11-05T12:11:25.643Z,72.34
2022-11-05T12:13:51.970Z,73.06
2022-11-05T12:16:08.860Z,73.26
2022-11-05T12:18:26.152Z,72.97
2022-11-05T12:20:58.512Z,72.48
2022-11-05T12:23:19.040Z,73.07
2022-11-05T12:26:12.103Z,73.43
2022-11-05T12:29:04.654Z,73.42
2022-11-05T12:31:29.552Z,73.32
2022-11-05T12:33:57.713Z,73.25
2022-11-05T12:36:27.573Z,73.63
2022-11-05T12:38:32.446Z,74.03
2022-11-05T12:41:16.414Z,73.85
2022-11-05T12:43:40.206Z,73.79
2022-11-05T12:45:54.073Z,74.07
2022-11-05T12:48:32.795Z,73.06
2022-11-05T12:50:53.139Z,73.86
2022-11-05T12:53:39.978Z,74.12
2022-11-05T12:55:48.523Z,73.64
2022-11-05T12:57:57.210Z,74.67
2022-11-05T13:00:11.604Z,76.23
2022-11-05T13:02:27.012Z,76.89
2022-11-05T13:04:45.546Z,77.18
2022-11-05T13:06:53.064Z,77.06
2022-11-05T13:09:17.574Z,76.59
2022-11-05T13:11:41.989Z,78.20
2022-11-05T13:14:11.641Z,77.94
2022-11-05T13:16:34.329Z,78.05
2022-11-05T13:18:49.281Z,80.06
2022-11-05T13:20:53.805Z,80.80
2022-11-05T13:23:02.039Z,80.30
2022-11-05T13:25:35.949Z,84.16
2022-11-05T13:27:44.990Z,80.68
2022-11-05T13:29:46.810Z,81.55
2022-11-05T13:32:02.970Z,80.22
2022-11-05T13:34:11.177Z,81.31
2022-11-05T13:36:46.378Z,81.61
2022-11-05T13:39:00.638Z,82.79
2022-11-05T13:41:27.670Z,82.17
2022-11-05T13:43:45.540Z,81.56
2022-11-05T13:46:05.597Z,82.12
2022-11-05T13:48:30.878Z,82.18
2022-11-05T13:50:41.506Z,82.77
2022-11-05T13:53:27.627Z,83.02
2022-11-05T13:55:48.626Z,83.92
2022-11-05T13:58:08.839Z,83.01
2022-11-05T14:00:29.560Z,84.01
2022-11-05T14:02:56.429Z,84.57
2022-11-05T14:05:01.738Z,84.29
2022-11-05T14:07:29.137Z,84.48
2022-11-05T14:09:35.145Z,84.23
2022-11-05T14:11:51.465Z,85.55
2022-11-05T14:13:58.748Z,84.13
2022-11-05T14:16:10.149Z,86.21
2022-11-05T14:18:24.306Z,85.10
2022-11-05T14:20:57.321Z,85.53
2022-11-05T14:23:17.802Z,85.39
2022-11-05T14:25:19.738Z,85.69
2022-11-05T14:27:21.504Z,85.61
2022-11-05T14:29:24.719Z,85.52
2022-11-05T14:34:19.406Z,86.49
2022-11-05T14:36:21.933Z,86.21
2022-11-05T14:38:27.846Z,85.99
2022-11-05T14:40:36.400Z,85.62
2022-11-05T14:42:38.870Z,86.45
2022-11-05T14:45:13.283Z,85.33
2022-11-05T14:47:21.770Z,85.38
2022-11-05T14:49:29.098Z,88.77
2022-11-05T14:51:33.553Z,87.97
2022-11-05T14:53:39.861Z,87.38
2022-11-05T14:55:43.777Z,87.08
2022-11-05T14:57:47.266Z,87.40
2022-11-05T14:59:57.835Z,86.83
2022-11-05T15:02:15.681Z,87.71
2022-11-05T15:04:17.776Z,86.87
2022-11-05T15:06:34.046Z,86.92
2022-11-05T15:08:52.303Z,86.83
2022-11-05T15:11:02.859Z,87.17
2022-11-05T15:13:06.566Z,86.82
2022-11-05T15:15:27.713Z,87.13
2022-11-05T15:17:33.910Z,87.86
2022-11-05T15:19:37.678Z,87.33
2022-11-05T15:21:41.417Z,87.07
2022-11-05T15:23:47.451Z,87.18
2022-11-05T15:26:04.678Z,87.24
2022-11-05T15:28:18.158Z,87.53
2022-11-05T15:30:22.830Z,87.45
2022-11-05T15:32:26.634Z,86.63
2022-11-05T15:34:32.097Z,86.65
2022-11-05T15:36:33.981Z,87.76
2022-11-05T15:38:36.130Z,87.22
2022-11-05T15:40:38.316Z,87.72
2022-11-05T15:42:40.197Z,86.99
2022-11-05T15:44:44.258Z,87.23
2022-11-05T15:46:46.471Z,86.92
2022-11-05T15:48:53.388Z,87.11
2022-11-05T15:50:55.489Z,86.92
2022-11-05T15:53:14.431Z,86.00
2022-11-05T15:55:24.524Z,86.12
2022-11-05T15:57:29.606Z,85.68
2022-11-05T15:59:31.899Z,85.56
2022-11-05T16:01:36.735Z,84.66
2022-11-05T16:03:39.642Z,86.09
2022-11-05T16:05:45.125Z,84.60
2022-11-05T16:07:48.388Z,85.23
2022-11-05T16:09:54.969Z,85.37
2022-11-05T16:12:18.366Z,85.04
2022-11-05T16:14:20.470Z,85.77
2022-11-05T16:16:33.910Z,85.66
2022-11-05T16:18:40.235Z,85.09
2022-11-05T16:21:10.889Z,85.02
2022-11-05T16:23:25.571Z,85.31
2022-11-05T16:25:29.648Z,85.12
2022-11-05T16:27:31.602Z,85.38
2022-11-05T16:29:46.335Z,84.26
2022-11-05T16:31:53.951Z,84.59
2022-11-05T16:33:57.066Z,84.58
2022-11-05T16:35:58.920Z,84.80
2022-11-05T16:38:02.083Z,83.77
2022-11-05T16:40:20.962Z,84.58
2022-11-05T16:42:22.749Z,84.76
2022-11-05T16:44:24.961Z,83.55
2022-11-05T16:46:30.168Z,84.22
2022-11-05T16:48:32.025Z,84.00
2022-11-05T16:50:34.657Z,83.94
2022-11-05T16:52:36.488Z,84.32
2022-11-05T16:54:38.937Z,84.56
2022-11-05T16:56:42.912Z,84.59
2022-11-05T16:58:47.256Z,84.85
2022-11-05T17:00:50.953Z,84.34
2022-11-05T17:02:53.637Z,84.54
2022-11-05T17:04:55.694Z,85.08
2022-11-05T17:06:57.647Z,85.31
2022-11-05T17:08:59.859Z,85.14
2022-11-05T17:11:01.985Z,85.34
2022-11-05T17:13:04.672Z,85.17
2022-11-05T17:15:20.316Z,85.14
2022-11-05T17:17:22.259Z,85.18
2022-11-05T17:19:24.094Z,86.31
2022-11-05T17:21:26.305Z,100.00
2022-11-05T17:23:28.977Z,91.14
2022-11-05T17:25:31.570Z,91.04
2022-11-05T17:27:33.943Z,89.93
2022-11-05T17:29:35.824Z,90.51
2022-11-05T17:31:39.974Z,89.90
2022-11-05T17:33:42.220Z,89.57
2022-11-05T17:35:44.096Z,88.52
2022-11-05T17:37:45.955Z,88.09
2022-11-05T17:39:48.128Z,87.96
2022-11-05T17:41:50.359Z,87.36
2022-11-05T17:43:57.358Z,87.27
2022-11-05T17:46:04.339Z,87.06
2022-11-05T17:48:08.258Z,86.46
2022-11-05T17:50:12.063Z,86.76
2022-11-05T17:52:14.498Z,87.06
2022-11-05T17:56:32.189Z,87.44
2022-11-05T17:58:36.859Z,87.46
2022-11-05T18:00:40.425Z,87.10
2022-11-05T18:02:42.399Z,87.29
2022-11-05T18:04:44.641Z,87.47
2022-11-05T18:06:46.993Z,87.08
2022-11-05T18:08:49.740Z,86.55
2022-11-05T18:10:53.275Z,85.27
2022-11-05T18:12:55.346Z,85.89
2022-11-05T18:14:57.233Z,85.80
2022-11-05T18:17:00.374Z,84.52
2022-11-05T18:19:03.010Z,85.77
2022-11-05T18:21:04.991Z,85.59
2022-11-05T18:23:07.205Z,86.08
2022-11-05T18:25:10.838Z,85.70
2022-11-05T18:27:13.240Z,85.55
2022-11-05T18:29:15.547Z,85.85
2022-11-05T18:31:23.077Z,84.95
2022-11-05T18:33:25.022Z,84.72
2022-11-05T18:35:27.720Z,85.48
2022-11-05T18:37:29.656Z,84.35
2022-11-05T18:39:31.557Z,84.58
2022-11-05T18:41:33.772Z,84.38
2022-11-05T18:43:35.786Z,84.17
2022-11-05T18:45:37.659Z,84.42
2022-11-05T18:47:39.930Z,84.74
2022-11-05T18:49:42.131Z,84.32
2022-11-05T18:51:43.970Z,84.89
2022-11-05T18:53:46.223Z,83.68
2022-11-05T18:55:48.117Z,84.09
2022-11-05T18:57:50.019Z,84.50
2022-11-05T18:59:52.194Z,83.67
2022-11-05T19:01:54.379Z,84.62
2022-11-05T19:03:57.669Z,84.20
2022-11-05T19:06:03.217Z,83.91
2022-11-05T19:08:05.282Z,83.45
2022-11-05T19:10:07.960Z,83.97
2022-11-05T19:12:10.149Z,83.53
2022-11-05T19:14:12.302Z,84.35
2022-11-05T19:16:23.785Z,83.60
2022-11-05T19:18:25.984Z,83.70
2022-11-05T19:20:28.191Z,82.68
2022-11-05T19:22:30.120Z,83.85
2022-11-05T19:24:32.377Z,84.16
2022-11-05T19:26:34.312Z,83.57
2022-11-05T19:28:36.627Z,82.71
2022-11-05T19:30:39.023Z,83.29
2022-11-05T19:32:41.062Z,83.41
2022-11-05T19:34:43.198Z,82.61
2022-11-05T19:36:45.627Z,82.86
2022-11-05T19:38:49.698Z,82.95
2022-11-05T19:40:52.403Z,82.62
2022-11-05T19:42:54.609Z,83.73
2022-11-05T19:44:56.997Z,82.45
2022-11-05T19:47:02.242Z,83.07
2022-11-05T19:49:04.695Z,83.40
2022-11-05T19:51:09.316Z,83.45
2022-11-05T19:53:11.286Z,82.53
2022-11-05T19:55:13.538Z,82.98
2022-11-05T19:57:15.377Z,82.45
2022-11-05T19:59:17.578Z,82.35
2022-11-05T20:01:21.595Z,82.58
2022-11-05T20:03:23.646Z,83.23
2022-11-05T20:05:25.553Z,83.35
2022-11-05T20:07:27.962Z,83.32
2022-11-05T20:09:29.963Z,83.23
2022-11-05T20:11:32.227Z,82.41
2022-11-05T20:13:34.760Z,82.38
2022-11-05T20:15:40.061Z,82.61
2022-11-05T20:17:41.914Z,82.35
2022-11-05T20:19:44.183Z,82.10
2022-11-05T20:21:46.349Z,81.48
2022-11-05T20:23:48.631Z,82.00
2022-11-05T20:25:53.719Z,81.13
2022-11-05T20:27:57.289Z,82.49
2022-11-05T20:29:59.255Z,83.43
2022-11-05T20:32:02.494Z,83.36
2022-11-05T20:34:04.703Z,83.27
2022-11-05T20:36:09.678Z,83.04
2022-11-05T20:38:12.028Z,83.08
2022-11-05T20:40:14.593Z,83.08
2022-11-05T20:42:16.663Z,83.08
2022-11-05T20:44:19.304Z,83.48
2022-11-05T20:46:22.796Z,83.62
2022-11-05T20:48:24.776Z,83.11
2022-11-05T20:50:27.060Z,83.49
2022-11-05T20:52:29.556Z,83.14
2022-11-05T20:54:31.628Z,83.30
2022-11-05T20:56:37.185Z,83.47
2022-11-05T20:58:40.388Z,82.32
2022-11-05T21:00:49.274Z,81.14
2022-11-05T21:02:51.635Z,82.19
2022-11-05T21:04:53.522Z,82.56
2022-11-05T21:06:55.390Z,81.99
2022-11-05T21:08:57.756Z,82.01
2022-11-05T21:11:00.137Z,82.80
2022-11-05T21:13:01.986Z,83.21
2022-11-05T21:15:04.782Z,83.12
2022-11-05T21:17:08.967Z,83.27
2022-11-05T21:19:10.862Z,82.71
2022-11-05T21:21:18.406Z,83.22
2022-11-05T21:23:20.934Z,83.76
2022-11-05T21:25:22.834Z,83.75
2022-11-05T21:27:25.105Z,84.17
2022-11-05T21:29:27.150Z,83.83
2022-11-05T21:31:29.120Z,83.67
2022-11-05T21:33:32.174Z,84.22
2022-11-05T21:35:34.663Z,83.75
2022-11-05T21:37:36.501Z,84.22
2022-11-05T21:39:39.210Z,83.84
2022-11-05T21:41:41.211Z,83.08
2022-11-05T21:43:43.255Z,83.60
2022-11-05T21:45:45.786Z,83.86
2022-11-05T21:47:47.702Z,84.15
2022-11-05T21:49:49.546Z,84.21
2022-11-05T21:52:10.974Z,84.46
2022-11-05T21:54:31.189Z,84.60
2022-11-05T21:56:51.757Z,83.78
2022-11-05T21:59:12.600Z,84.06
2022-11-05T22:01:14.594Z,83.68
2022-11-05T22:03:16.478Z,83.92
2022-11-05T22:05:18.718Z,84.22
2022-11-05T22:07:23.378Z,84.08
2022-11-05T22:09:26.052Z,83.33
2022-11-05T22:11:28.124Z,82.21
2022-11-05T22:13:29.949Z,83.92
2022-11-05T22:15:31.886Z,83.95
2022-11-05T22:17:34.084Z,82.91
2022-11-05T22:19:36.618Z,82.82
2022-11-05T22:21:38.693Z,83.46
2022-11-05T22:23:40.948Z,82.93
2022-11-05T22:25:42.839Z,82.16
2022-11-05T22:27:44.662Z,82.08
2022-11-05T22:29:47.283Z,82.04
2022-11-05T22:31:49.302Z,82.26
2022-11-05T22:33:51.139Z,82.22
2022-11-05T22:35:53.339Z,82.09
2022-11-05T22:37:55.312Z,82.43
2022-11-05T22:39:57.125Z,81.87
2022-11-05T22:42:02.040Z,81.84
2022-11-05T22:44:07.614Z,81.98
2022-11-05T22:46:12.340Z,82.53
2022-11-05T22:48:15.210Z,81.86
2022-11-05T22:50:17.749Z,81.33
2022-11-05T22:52:19.974Z,82.39
2022-11-05T22:54:22.174Z,81.51
2022-11-05T22:56:26.154Z,81.57
2022-11-05T22:58:28.090Z,82.30
2022-11-05T23:00:37.579Z,82.59
2022-11-05T23:02:40.001Z,82.80
2022-11-05T23:04:42.037Z,82.25
2022-11-05T23:07:03.188Z,81.52
2022-11-05T23:09:30.314Z,81.52
2022-11-05T23:11:41.043Z,81.06
2022-11-05T23:13:43.504Z,80.64
2022-11-05T23:16:04.193Z,81.12
2022-11-05T23:18:24.682Z,81.52
2022-11-05T23:20:45.530Z,81.12
2022-11-05T23:23:06.058Z,81.09
2022-11-05T23:25:10.988Z,81.08
2022-11-05T23:27:13.212Z,81.56
2022-11-05T23:29:15.047Z,80.86
2022-11-05T23:31:35.752Z,80.40
2022-11-05T23:33:37.974Z,80.38
2022-11-05T23:35:58.381Z,81.05
2022-11-05T23:38:19.014Z,81.90
2022-11-05T23:40:26.859Z,81.38
2022-11-05T23:42:47.362Z,82.63
2022-11-05T23:45:13.121Z,81.79
2022-11-05T23:47:35.086Z,82.60
2022-11-05T23:49:36.922Z,82.24
2022-11-05T23:51:38.935Z,82.28
2022-11-05T23:53:41.575Z,82.22
2022-11-05T23:55:44.003Z,82.92
2022-11-05T23:57:45.902Z,82.94
2022-11-05T23:59:48.165Z,81.97
